Aeroporto :
LOGIN :

Iscrizione | Disclaimer

   EN    FR    IT 

 










Sommario :    VFR   VFR Marginale   IFR   IFR Intensivo   IFR Molto Intensivo
Visibilità : 
Base nubi : 
>= 8 km
>= 3000ft
5 / 8 km
1000 / 3000 ft
1500m / 5 km
500 / 1000 ft
800 / 1500m
200 / 500 ft
< 800m
< 200 ft
Simboli :   Temporali  Nebbia  Neve Forte  Precipitazioni Forti  Vento > 20 kt
SIGMETs :   Varie  Temporali  Ghiacco  Turbolenza  Onda orograficha  Ceneri Vulcaniche






- Altitudine del aeroporto : 526 ft
- Codice IATA : LTN


EGGW - London Luton

ULTIMO METAR :
  • 251820Z AUTO 27008KT 9999 NCD 22/05 Q1033

METARs OBSOLETI :
  • 251750Z AUTO 26007KT 220V300 9999 NCD 22/04 Q1034
  • 251720Z AUTO 26008KT 9999 NCD 23/05 Q1034
  • 251650Z AUTO 29007KT 240V340 9999 NCD 23/05 Q1034
  • 251620Z AUTO 25006KT 190V310 9999 NCD 24/04 Q1034
  • 251550Z AUTO 26010KT 9999 NCD 23/03 Q1034

TAF TAF EGGW
Valido dal 25 a 18 ore il 26 a 18 ore UTC


251656Z 2518/2618 28008KT CAVOK
BECMG 2610/2613 BKN040
ATIS : +44 1582 395 204



MetMap, La meteo Aeronautica in un colpo d'occhio ! - Copyright ORBIFLY Dicembre 2007 - Disclaimer

ORBIFLY MET'MAP TEAM :

Programmazione e sviluppo : Alexandra Zaïnal
Concezione : Baudouin d'Aumeries
Aiuto per la programmazione : Marc-Olivier Méhu
Supporto tecnico e logistico : Manuel Goepfert
Aiuto per la traduzione : Arnaldo La Scala

Contatto : metmap@orbifly.com




FONTI E CREDITI :

   NOAA